Wetterdaten: Woche 12.12.11 - 18.12.11 (KW50)
Datum Zeit Temp. A. Feuchte A. Luftdruck Regen Wind Richtung Taupunkt Windchill Windben
12.12.2011 00:00 -2,7 C 85 % 1017,7 hPa 0,0 l/m 0,0 km/h N -4,9 C -2,7 C 0,0 km/h
12.12.2011 01:00 -3,0 C 85 % 1017,4 hPa 0,0 l/m 0,0 km/h N -5,2 C -3,0 C 0,0 km/h
12.12.2011 02:00 -3,1 C 85 % 1017,2 hPa 0,0 l/m 0,0 km/h N -5,2 C -3,1 C 0,4 km/h
12.12.2011 03:00 -2,9 C 85 % 1016,6 hPa 0,0 l/m 0,0 km/h N -5,1 C -2,9 C 0,4 km/h
12.12.2011 04:00 -1,8 C 83 % 1016,2 hPa 0,0 l/m 0,1 km/h N -4,3 C -1,8 C 3,2 km/h
12.12.2011 05:00 -0,4 C 82 % 1015,7 hPa 0,0 l/m 0,1 km/h N -3,0 C -0,4 C 2,4 km/h
12.12.2011 06:00 0,3 C 82 % 1015,5 hPa 0,0 l/m 0,0 km/h N -2,4 C 0,3 C 1,6 km/h
12.12.2011 07:00 0,8 C 82 % 1015,2 hPa 0,0 l/m 0,0 km/h N -2,0 C 0,8 C 0,4 km/h
12.12.2011 08:00 1,2 C 82 % 1015,0 hPa 0,0 l/m 0,0 km/h N -1,6 C 1,2 C 1,6 km/h
12.12.2011 09:00 1,7 C 81 % 1014,6 hPa 0,0 l/m 0,0 km/h N -1,2 C 1,7 C 0,4 km/h
12.12.2011 10:00 2,5 C 81 % 1014,2 hPa 0,0 l/m 0,0 km/h N -0,4 C 2,5 C 1,6 km/h
12.12.2011 11:00 2,9 C 81 % 1013,1 hPa 0,0 l/m 0,1 km/h N -0,0 C 2,9 C 2,8 km/h
12.12.2011 12:00 3,5 C 82 % 1012,1 hPa 0,0 l/m 0,0 km/h N 0,6 C 3,5 C 1,2 km/h
12.12.2011 13:00 3,9 C 82 % 1011,5 hPa 0,0 l/m 0,0 km/h N 1,2 C 3,9 C 0,4 km/h
12.12.2011 14:00 4,3 C 83 % 1010,9 hPa 0,0 l/m 0,0 km/h N 1,6 C 4,3 C 1,2 km/h
12.12.2011 15:00 4,5 C 83 % 1010,8 hPa 0,0 l/m 0,0 km/h N 1,9 C 4,5 C 0,8 km/h
12.12.2011 16:00 4,8 C 83 % 1010,9 hPa 0,0 l/m 0,2 km/h N 2,1 C 4,8 C 2,0 km/h
12.12.2011 17:00 5,1 C 83 % 1011,1 hPa 0,0 l/m 1,6 km/h N-NW 2,5 C 5,1 C 7,2 km/h
12.12.2011 18:00 4,5 C 83 % 1012,5 hPa 0,0 l/m 7,0 km/h W-NW 1,9 C 3,7 C 21,3 km/h
12.12.2011 19:00 3,5 C 85 % 1013,7 hPa 0,0 l/m 7,1 km/h N-NW 1,2 C 2,9 C 20,1 km/h
12.12.2011 20:00 3,7 C 85 % 1013,8 hPa 0,0 l/m 3,1 km/h N-NO 1,4 C 3,5 C 9,3 km/h
12.12.2011 21:00 4,9 C 83 % 1014,5 hPa 0,0 l/m 3,9 km/h NW 2,2 C 4,5 C 12,9 km/h
12.12.2011 22:00 5,6 C 81 % 1014,7 hPa 0,0 l/m 11,3 km/h N-NW 2,6 C 1,9 C 27,4 km/h
12.12.2011 23:00 5,3 C 82 % 1015,1 hPa 0,0 l/m 11,8 km/h W 2,5 C 1,2 C 27,8 km/h
13.12.2011 00:00 5,7 C 83 % 1015,5 hPa 0,0 l/m 10,8 km/h NW 3,1 C 2,3 C 31,0 km/h
13.12.2011 01:00 6,0 C 83 % 1015,6 hPa 0,0 l/m 11,5 km/h W 3,2 C 2,2 C 28,1 km/h
13.12.2011 02:00 5,8 C 80 % 1016,0 hPa 0,0 l/m 8,2 km/h NW 2,6 C 4,3 C 26,5 km/h
13.12.2011 03:00 5,5 C 79 % 1016,3 hPa 0,0 l/m 10,1 km/h N 2,2 C 2,6 C 28,2 km/h
13.12.2011 04:00 5,0 C 80 % 1016,7 hPa 0,0 l/m 6,9 km/h NW 1,8 C 4,2 C 16,9 km/h
13.12.2011 05:00 4,5 C 79 % 1016,5 hPa 0,0 l/m 6,4 km/h W-SW 1,1 C 4,3 C 19,3 km/h
13.12.2011 06:00 4,2 C 79 % 1016,7 hPa 0,0 l/m 2,5 km/h NW 0,8 C 4,2 C 10,1 km/h
13.12.2011 07:00 2,8 C 80 % 1016,9 hPa 0,0 l/m 0,4 km/h N -0,2 C 2,8 C 4,0 km/h
13.12.2011 08:00 1,4 C 82 % 1017,1 hPa 0,0 l/m 0,0 km/h N -1,3 C 1,4 C 0,8 km/h
13.12.2011 09:00 1,9 C 85 % 1017,1 hPa 0,0 l/m 0,0 km/h N -0,3 C 1,9 C 1,6 km/h
13.12.2011 10:00 3,4 C 84 % 1016,5 hPa 0,0 l/m 0,8 km/h N 1,0 C 3,4 C 5,6 km/h
13.12.2011 11:00 4,9 C 83 % 1015,0 hPa 0,0 l/m 0,8 km/h O-SO 2,2 C 4,9 C 6,0 km/h
13.12.2011 12:00 6,1 C 77 % 1013,3 hPa 0,0 l/m 1,0 km/h O-SO 2,4 C 6,1 C 4,8 km/h
13.12.2011 13:00 7,1 C 75 % 1012,0 hPa 0,0 l/m 1,0 km/h O-SO 2,9 C 7,1 C 6,0 km/h
13.12.2011 14:00 7,3 C 75 % 1010,9 hPa 0,0 l/m 0,4 km/h N 3,2 C 7,3 C 4,0 km/h
13.12.2011 15:00 7,0 C 77 % 1010,9 hPa 0,0 l/m 0,0 km/h N 3,3 C 7,0 C 0,4 km/h
13.12.2011 16:00 6,0 C 78 % 1011,0 hPa 0,0 l/m 0,0 km/h N 2,4 C 6,0 C 0,0 km/h
13.12.2011 17:00 5,0 C 80 % 1011,2 hPa 0,0 l/m 0,0 km/h N 1,8 C 5,0 C 0,0 km/h
13.12.2011 18:00 4,8 C 81 % 1011,0 hPa 0,0 l/m 0,0 km/h N 1,8 C 4,8 C 1,6 km/h
13.12.2011 19:00 4,6 C 82 % 1011,0 hPa 0,0 l/m 0,0 km/h N 1,8 C 4,6 C 0,8 km/h
13.12.2011 20:00 3,6 C 82 % 1011,6 hPa 0,0 l/m 0,0 km/h N-NW 0,7 C 3,6 C 0,8 km/h
13.12.2011 21:00 3,0 C 85 % 1012,8 hPa 0,0 l/m 1,0 km/h NW 0,7 C 3,0 C 4,4 km/h
13.12.2011 22:00 2,1 C 84 % 1013,2 hPa 0,0 l/m 0,0 km/h N -0,3 C 2,1 C 0,4 km/h
13.12.2011 23:00 1,3 C 85 % 1013,4 hPa 0,0 l/m 0,0 km/h N -1,0 C 1,3 C 0,4 km/h
14.12.2011 00:00 1,3 C 85 % 1013,6 hPa 0,0 l/m 0,0 km/h N -0,9 C 1,3 C 0,0 km/h
14.12.2011 01:00 0,8 C 85 % 1013,7 hPa 0,0 l/m 0,0 km/h N -1,5 C 0,8 C 0,0 km/h
14.12.2011 02:00 0,6 C 85 % 1014,0 hPa 0,0 l/m 0,0 km/h N -1,7 C 0,6 C 0,0 km/h
14.12.2011 03:00 1,4 C 84 % 1014,1 hPa 0,0 l/m 0,0 km/h N -1,1 C 1,4 C 0,4 km/h
14.12.2011 04:00 1,8 C 83 % 1014,2 hPa 0,0 l/m 0,0 km/h N -0,8 C 1,8 C 1,2 km/h
14.12.2011 05:00 1,3 C 83 % 1014,5 hPa 0,0 l/m 0,0 km/h N -1,2 C 1,3 C 0,0 km/h
14.12.2011 06:00 1,3 C 83 % 1014,8 hPa 0,0 l/m 0,0 km/h N -1,3 C 1,3 C 1,6 km/h
14.12.2011 07:00 1,0 C 83 % 1014,7 hPa 0,0 l/m 0,0 km/h N -1,6 C 1,0 C 0,4 km/h
14.12.2011 08:00 1,0 C 82 % 1014,8 hPa 0,0 l/m 0,0 km/h N -1,7 C 1,0 C 1,6 km/h
14.12.2011 09:00 1,5 C 82 % 1014,5 hPa 0,0 l/m 0,3 km/h N -1,2 C 1,5 C 4,8 km/h
14.12.2011 10:00 2,0 C 81 % 1014,5 hPa 0,0 l/m 0,3 km/h N -0,8 C 2,0 C 3,6 km/h
14.12.2011 11:00 2,4 C 81 % 1013,7 hPa 0,0 l/m 0,3 km/h N -0,5 C 2,4 C 4,8 km/h
14.12.2011 12:00 2,8 C 81 % 1012,3 hPa 0,0 l/m 0,2 km/h N -0,2 C 2,8 C 2,4 km/h
14.12.2011 13:00 3,3 C 80 % 1011,0 hPa 0,0 l/m 0,5 km/h N 0,2 C 3,3 C 6,0 km/h
14.12.2011 14:00 3,1 C 81 % 1010,6 hPa 0,0 l/m 0,6 km/h N 0,1 C 3,1 C 5,2 km/h
14.12.2011 15:00 2,8 C 81 % 1010,2 hPa 0,0 l/m 0,3 km/h N -0,1 C 2,8 C 4,4 km/h
14.12.2011 16:00 2,7 C 81 % 1010,1 hPa 0,0 l/m 0,2 km/h N -0,2 C 2,7 C 4,0 km/h
14.12.2011 17:00 2,5 C 82 % 1010,4 hPa 0,0 l/m 0,5 km/h N -0,4 C 2,5 C 5,6 km/h
14.12.2011 18:00 2,4 C 81 % 1011,2 hPa 0,0 l/m 0,5 km/h N -0,5 C 2,4 C 3,2 km/h
14.12.2011 19:00 2,2 C 82 % 1012,3 hPa 0,0 l/m 2,7 km/h W-NW -0,5 C 2,2 C 9,3 km/h
14.12.2011 20:00 2,5 C 82 % 1013,3 hPa 0,0 l/m 1,9 km/h O-NO -0,2 C 2,5 C 6,8 km/h
14.12.2011 21:00 2,9 C 82 % 1013,4 hPa 0,0 l/m 0,6 km/h N 0,1 C 2,9 C 5,2 km/h
14.12.2011 22:00 4,8 C 82 % 1013,3 hPa 0,0 l/m 2,8 km/h W-SW 2,0 C 4,8 C 14,5 km/h
14.12.2011 23:00 5,3 C 81 % 1013,7 hPa 0,0 l/m 0,7 km/h W 2,3 C 5,3 C 6,0 km/h
15.12.2011 00:00 8,1 C 71 % 1013,1 hPa 0,0 l/m 9,7 km/h W-SW 3,0 C 5,9 C 31,4 km/h
15.12.2011 01:00 9,3 C 61 % 1013,2 hPa 0,0 l/m 10,3 km/h W-NW 2,0 C 6,8 C 33,0 km/h
15.12.2011 02:00 9,4 C 57 % 1013,4 hPa 0,0 l/m 8,4 km/h W-SW 1,4 C 8,0 C 25,7 km/h
15.12.2011 03:00 9,0 C 58 % 1013,8 hPa 0,0 l/m 2,9 km/h W-SW 1,1 C 9,0 C 12,4 km/h
15.12.2011 04:00 8,1 C 62 % 1013,9 hPa 0,0 l/m 0,0 km/h N 1,1 C 8,1 C 0,8 km/h
15.12.2011 05:00 6,6 C 68 % 1013,9 hPa 0,0 l/m 0,0 km/h N 1,2 C 6,6 C 1,2 km/h
15.12.2011 06:00 5,6 C 75 % 1013,8 hPa 0,0 l/m 0,2 km/h N 1,5 C 5,6 C 3,6 km/h
15.12.2011 07:00 5,4 C 77 % 1013,7 hPa 0,0 l/m 0,1 km/h N 1,7 C 5,4 C 2,0 km/h
15.12.2011 08:00 5,4 C 79 % 1013,8 hPa 0,0 l/m 1,3 km/h SO 2,0 C 5,4 C 7,7 km/h
15.12.2011 09:00 6,4 C 79 % 1013,7 hPa 0,0 l/m 7,1 km/h S-SO 3,0 C 5,4 C 22,1 km/h
15.12.2011 10:00 6,7 C 78 % 1013,5 hPa 0,0 l/m 8,4 km/h S-SO 3,2 C 5,1 C 22,1 km/h
15.12.2011 11:00 7,2 C 76 % 1013,0 hPa 0,0 l/m 6,4 km/h S 3,2 C 6,8 C 20,9 km/h
15.12.2011 12:00 7,2 C 75 % 1012,7 hPa 0,0 l/m 1,7 km/h S-SO 3,0 C 7,2 C 7,6 km/h
15.12.2011 13:00 7,0 C 76 % 1012,3 hPa 0,0 l/m 4,5 km/h S 3,0 C 7,0 C 14,9 km/h
15.12.2011 14:00 6,8 C 78 % 1012,1 hPa 0,0 l/m 0,4 km/h N 3,3 C 6,8 C 4,4 km/h
15.12.2011 15:00 6,5 C 81 % 1012,0 hPa 0,0 l/m 0,1 km/h N 3,4 C 6,5 C 1,6 km/h
15.12.2011 16:00 5,8 C 82 % 1012,0 hPa 0,0 l/m 0,5 km/h N-NO 3,0 C 5,8 C 3,6 km/h
15.12.2011 17:00 5,5 C 84 % 1012,1 hPa 0,0 l/m 0,1 km/h N 2,9 C 5,5 C 2,8 km/h
15.12.2011 18:00 5,2 C 84 % 1012,2 hPa 0,0 l/m 0,0 km/h N 2,8 C 5,2 C 0,8 km/h
15.12.2011 19:00 4,8 C 85 % 1011,7 hPa 0,0 l/m 0,0 km/h N 2,4 C 4,8 C 0,4 km/h
15.12.2011 20:00 4,3 C 85 % 1011,4 hPa 0,0 l/m 0,0 km/h N 1,9 C 4,3 C 0,8 km/h
15.12.2011 21:00 3,8 C 84 % 1011,3 hPa 0,0 l/m 0,0 km/h W-SW 1,4 C 3,8 C 0,8 km/h
15.12.2011 22:00 4,9 C 82 % 1011,0 hPa 0,3 l/m 6,6 km/h W-NW 2,1 C 3,7 C 20,1 km/h
15.12.2011 23:00 6,2 C 74 % 1010,8 hPa 0,0 l/m 10,3 km/h NW 2,0 C 3,2 C 26,1 km/h
16.12.2011 00:00 6,2 C 72 % 1010,6 hPa 0,0 l/m 9,2 km/h W-NW 1,5 C 3,9 C 27,0 km/h
16.12.2011 01:00 5,5 C 72 % 1010,6 hPa 0,0 l/m 2,2 km/h NW 0,8 C 5,5 C 10,1 km/h
16.12.2011 02:00 3,9 C 73 % 1010,5 hPa 0,0 l/m 0,1 km/h N -0,5 C 3,9 C 2,8 km/h
16.12.2011 03:00 1,6 C 76 % 1010,0 hPa 0,0 l/m 0,0 km/h N -2,2 C 1,6 C 1,6 km/h
16.12.2011 04:00 0,4 C 81 % 1008,8 hPa 0,0 l/m 0,0 km/h N -2,5 C 0,4 C 2,0 km/h
16.12.2011 05:00 -0,4 C 82 % 1007,5 hPa 0,0 l/m 0,0 km/h N -3,0 C -0,4 C 0,8 km/h
16.12.2011 06:00 -1,1 C 83 % 1006,2 hPa 0,0 l/m 0,5 km/h S -3,5 C -1,1 C 3,6 km/h
16.12.2011 07:00 0,8 C 83 % 1004,1 hPa 0,0 l/m 1,0 km/h S -1,7 C 0,8 C 7,2 km/h
16.12.2011 08:00 1,9 C 79 % 1001,7 hPa 0,0 l/m 2,6 km/h S -1,4 C 1,9 C 11,3 km/h
16.12.2011 09:00 2,9 C 77 % 998,8 hPa 0,0 l/m 1,4 km/h S-SO -0,8 C 2,9 C 8,9 km/h
16.12.2011 10:00 4,4 C 75 % 995,8 hPa 0,0 l/m 1,7 km/h S-SO 0,3 C 4,4 C 8,4 km/h
16.12.2011 11:00 6,8 C 69 % 993,0 hPa 0,0 l/m 5,1 km/h S-SO 1,5 C 6,8 C 18,9 km/h
16.12.2011 12:00 7,8 C 66 % 990,4 hPa 0,0 l/m 5,4 km/h S-SO 1,8 C 7,7 C 16,5 km/h
16.12.2011 13:00 8,4 C 68 % 989,2 hPa 0,8 l/m 3,8 km/h S-SO 2,8 C 7,5 C 14,9 km/h
16.12.2011 14:00 7,7 C 80 % 987,8 hPa 1,3 l/m 2,6 km/h SO 4,4 C 7,7 C 10,9 km/h
16.12.2011 15:00 5,9 C 82 % 986,0 hPa 0,0 l/m 4,3 km/h S-SO 3,1 C 5,9 C 15,3 km/h
16.12.2011 16:00 5,7 C 83 % 984,3 hPa 0,0 l/m 3,9 km/h S-SO 3,0 C 5,7 C 10,1 km/h
16.12.2011 17:00 6,5 C 79 % 983,3 hPa 0,0 l/m 7,8 km/h S-SO 3,1 C 4,8 C 25,8 km/h
16.12.2011 18:00 7,8 C 73 % 982,7 hPa 0,0 l/m 8,0 km/h S 3,1 C 6,5 C 25,4 km/h
16.12.2011 19:00 8,4 C 70 % 981,8 hPa 0,0 l/m 7,4 km/h S-SO 3,1 C 7,6 C 21,7 km/h
16.12.2011 20:00 9,1 C 68 % 982,4 hPa 0,0 l/m 6,3 km/h S-SO 3,5 C 8,7 C 20,5 km/h
16.12.2011 21:00 8,1 C 78 % 985,8 hPa 0,8 l/m 13,6 km/h W 4,5 C 3,8 C 35,8 km/h
16.12.2011 22:00 8,5 C 73 % 985,3 hPa 0,0 l/m 13,2 km/h S 3,9 C 4,3 C 38,2 km/h
16.12.2011 23:00 8,4 C 69 % 986,1 hPa 0,0 l/m 14,6 km/h W-SW 3,0 C 3,5 C 42,6 km/h
17.12.2011 00:00 8,5 C 60 % 985,9 hPa 0,0 l/m 17,9 km/h NW 1,2 C 2,1 C 50,3 km/h
17.12.2011 01:00 7,8 C 59 % 986,1 hPa 0,0 l/m 17,8 km/h NW 0,3 C 1,3 C 44,7 km/h
17.12.2011 02:00 6,9 C 58 % 987,3 hPa 0,0 l/m 19,0 km/h W-SW -0,9 C -0,3 C 50,3 km/h
17.12.2011 03:00 6,2 C 59 % 988,7 hPa 0,0 l/m 16,8 km/h W -1,3 C -0,3 C 42,7 km/h
17.12.2011 04:00 5,5 C 59 % 988,8 hPa 0,0 l/m 17,0 km/h NW -1,8 C -1,2 C 43,1 km/h
17.12.2011 05:00 4,5 C 66 % 989,4 hPa 0,0 l/m 15,7 km/h S -1,4 C -1,8 C 37,0 km/h
17.12.2011 06:00 3,1 C 75 % 990,1 hPa 0,3 l/m 16,6 km/h W-NW -0,9 C -4,0 C 41,8 km/h
17.12.2011 07:00 2,9 C 75 % 991,0 hPa 0,0 l/m 17,0 km/h NW -1,0 C -4,5 C 41,8 km/h
17.12.2011 08:00 3,3 C 72 % 991,6 hPa 0,0 l/m 17,3 km/h W-NW -1,2 C -4,1 C 39,4 km/h
17.12.2011 09:00 3,7 C 71 % 992,0 hPa 0,0 l/m 15,5 km/h W-NW -1,0 C -2,8 C 43,0 km/h
17.12.2011 10:00 4,0 C 72 % 992,9 hPa 0,0 l/m 13,9 km/h W -0,7 C -1,5 C 32,6 km/h
17.12.2011 11:00 4,3 C 71 % 993,3 hPa 0,0 l/m 14,8 km/h W-NW -0,6 C -1,7 C 34,6 km/h
17.12.2011 12:00 4,4 C 69 % 994,3 hPa 0,0 l/m 13,5 km/h W-NW -0,7 C -0,8 C 34,6 km/h
17.12.2011 13:00 4,6 C 69 % 995,4 hPa 0,0 l/m 13,1 km/h W-SW -0,7 C -0,3 C 33,0 km/h
17.12.2011 14:00 4,5 C 70 % 996,4 hPa 0,0 l/m 12,3 km/h W-NW -0,6 C -0,0 C 33,4 km/h
17.12.2011 15:00 3,7 C 75 % 997,9 hPa 0,0 l/m 12,1 km/h W -0,4 C -0,8 C 29,0 km/h
17.12.2011 16:00 2,3 C 83 % 999,3 hPa 0,8 l/m 8,1 km/h NW -0,3 C 0,3 C 27,8 km/h
17.12.2011 17:00 2,5 C 81 % 1000,0 hPa 0,5 l/m 7,1 km/h NW -0,5 C 1,0 C 21,7 km/h
17.12.2011 18:00 3,1 C 73 % 1000,5 hPa 0,0 l/m 10,5 km/h W-SW -1,2 C -0,3 C 30,2 km/h
17.12.2011 19:00 3,4 C 74 % 1001,0 hPa 0,0 l/m 11,8 km/h W-SW -0,8 C -1,0 C 32,6 km/h
17.12.2011 20:00 3,4 C 73 % 1001,7 hPa 0,3 l/m 12,2 km/h W-NW -0,9 C -1,1 C 31,0 km/h
17.12.2011 21:00 3,5 C 75 % 1002,3 hPa 0,0 l/m 11,8 km/h W-NW -0,5 C -0,8 C 31,4 km/h
17.12.2011 22:00 3,6 C 76 % 1002,9 hPa 0,0 l/m 11,6 km/h W-NW -0,3 C -0,6 C 33,4 km/h
17.12.2011 23:00 3,4 C 77 % 1003,7 hPa 0,0 l/m 9,5 km/h NW -0,4 C 0,7 C 26,5 km/h
18.12.2011 00:00 3,4 C 75 % 1004,3 hPa 0,0 l/m 10,7 km/h W -0,5 C -0,2 C 29,4 km/h
18.12.2011 01:00 3,5 C 75 % 1005,0 hPa 0,0 l/m 9,7 km/h W-SW -0,6 C 0,7 C 28,2 km/h
18.12.2011 02:00 3,4 C 76 % 1005,8 hPa 0,0 l/m 9,5 km/h W-NW -0,5 C 0,7 C 26,6 km/h
18.12.2011 03:00 3,3 C 74 % 1006,3 hPa 0,0 l/m 9,1 km/h W-NW -0,9 C 0,9 C 29,4 km/h
18.12.2011 04:00 3,6 C 71 % 1006,8 hPa 0,0 l/m 10,5 km/h W-NW -1,2 C 0,1 C 30,6 km/h
18.12.2011 05:00 3,1 C 71 % 1007,2 hPa 0,0 l/m 9,2 km/h NO -1,7 C 0,7 C 28,1 km/h
18.12.2011 06:00 2,7 C 71 % 1008,2 hPa 0,0 l/m 5,9 km/h SW -2,1 C 2,7 C 23,7 km/h
18.12.2011 07:00 2,6 C 70 % 1009,0 hPa 0,0 l/m 5,9 km/h W -2,3 C 2,3 C 21,3 km/h
18.12.2011 08:00 2,5 C 71 % 1009,8 hPa 0,0 l/m 4,4 km/h NW -2,3 C 2,5 C 17,3 km/h
18.12.2011 09:00 2,9 C 70 % 1010,2 hPa 0,0 l/m 2,0 km/h SW -2,1 C 2,9 C 13,3 km/h
18.12.2011 10:00 3,7 C 67 % 1010,4 hPa 0,0 l/m 2,0 km/h SW -1,9 C 3,7 C 10,5 km/h
18.12.2011 11:00 4,2 C 65 % 1010,6 hPa 0,0 l/m 1,1 km/h SW -1,8 C 4,2 C 6,8 km/h
18.12.2011 12:00 4,9 C 61 % 1010,5 hPa 0,0 l/m 1,1 km/h S-SW -1,9 C 4,9 C 6,4 km/h
18.12.2011 13:00 5,4 C 58 % 1010,6 hPa 0,0 l/m 0,8 km/h S-SO -2,3 C 5,4 C 6,0 km/h
18.12.2011 14:00 5,8 C 55 % 1011,0 hPa 0,0 l/m 1,3 km/h S -2,5 C 5,8 C 7,6 km/h
18.12.2011 15:00 5,6 C 54 % 1011,6 hPa 0,0 l/m 0,5 km/h N -3,0 C 5,6 C 4,8 km/h
18.12.2011 16:00 3,8 C 61 % 1012,6 hPa 0,0 l/m 0,9 km/h SW -3,1 C 3,8 C 8,4 km/h
18.12.2011 17:00 3,6 C 66 % 1013,1 hPa 0,0 l/m 2,5 km/h W-SW -2,3 C 3,6 C 12,5 km/h
18.12.2011 18:00 3,3 C 65 % 1013,7 hPa 0,0 l/m 2,8 km/h SW -2,7 C 3,3 C 10,9 km/h
18.12.2011 19:00 2,8 C 66 % 1014,3 hPa 0,0 l/m 3,5 km/h SW -2,9 C 2,8 C 15,7 km/h
18.12.2011 20:00 3,0 C 66 % 1014,8 hPa 0,0 l/m 4,0 km/h SW -2,8 C 3,0 C 14,5 km/h
18.12.2011 21:00 3,0 C 65 % 1015,3 hPa 0,0 l/m 3,1 km/h SW -3,0 C 3,0 C 11,3 km/h
18.12.2011 22:00 2,5 C 66 % 1015,6 hPa 0,0 l/m 0,6 km/h N -3,2 C 2,5 C 4,4 km/h
18.12.2011 23:00 1,4 C 69 % 1016,3 hPa 0,0 l/m 0,1 km/h N -3,7 C 1,4 C 2,0 km/h
Min-Datum _ 12.12.11 18.12.11 16.12.11 - 12.12.11 - 12.12.11 17.12.11 12.12.11
_ Min-Zeit 01:45 14:30 20:00 - 00:00 - 01:45 06:30 00:00
Minimum _ -3,1 C 53 % 981,5 hPa - 0,0 km/h - -5,3 C -5,3 C 0,0 km/h
Max-Datum _ 15.12.11 12.12.11 12.12.11 16.12.11 17.12.11 - 16.12.11 15.12.11 17.12.11
_ Max-Zeit 02:15 00:00 00:00 14:00 01:15 - 14:00 03:00 02:00
Maximum _ 9,5 C 85 % 1017,9 hPa 1,3 l/m 20,0 km/h
NW
- 4,8 C 9,2 C 56,3 km/h
W
Durchschnitt _ 4,0 C 76 % 1007,8 hPa #4,9 l/m 4,5 km/h W-NW 0,2 C 2,9 C 13,8 km/h